San Valentino — IQXH — position and weather

sailwx.info

Track history (hours):
 
Tides and Currents Weather Stations Pressure Air Temp Water Temp Dewpoint Dewpoint Depression Visibility Wind Speed Wind Dir Waves Ship Positions

San Valentino

Last reported at 2017-Sep-25 15:27 UTC. Time now 2017-Sep-25 17:05 UTC.
Position N 40°38' E 014°23'.

Length 32 m; draft 2 m.

Type: Ship. MMSI: 247065100.

Date/timePositionNaut miles runAvg speedWind from/ knotsBaromVisibWave heightAir tempDewpointWater temp
2017-Sep-25 15:27N 40°38' E 014°23'5 1.0
2017-Sep-25 10:41N 40°37' E 014°29'2 9.4
2017-Sep-25 10:29N 40°36' E 014°27'6 3.3
2017-Sep-25 08:32N 40°36' E 014°18'0 9.2
2017-Sep-25 08:29N 40°36' E 014°19'3 7.1
2017-Sep-25 08:00N 40°38' E 014°23'0 0.0
2017-Sep-25 07:30N 40°38' E 014°23'0 0.0
2017-Sep-24 15:22N 40°38' E 014°23'2 6.5
2017-Sep-24 15:00N 40°37' E 014°19'3 5.5
2017-Sep-24 14:23N 40°35' E 014°22'6 1.5
2017-Sep-24 10:38N 40°37' E 014°29'1 9.5
2017-Sep-24 10:30N 40°37' E 014°27'7 3.6
2017-Sep-24 08:32N 40°36' E 014°18'0 9.2
2017-Sep-24 08:30N 40°36' E 014°18'4 7.2
2017-Sep-24 08:00N 40°38' E 014°23'0 0.0
2017-Sep-24 07:30N 40°38' E 014°23'  
2017-Sep-21 18:24N 40°38' E 014°23'2 5.8
2017-Sep-21 18:00N 40°38' E 014°20'1 0.3
2017-Sep-21 14:57N 40°37' E 014°20'4 8.8
2017-Sep-21 14:30N 40°39' E 014°24'1 2.2
2017-Sep-21 14:00N 40°38' E 014°24'0 0.0
2017-Sep-21 13:30N 40°38' E 014°24'1 2.4
2017-Sep-21 13:00N 40°38' E 014°23'  
2017-Sep-16 15:35N 40°38' E 014°23'0 2.1
2017-Sep-16 15:30N 40°38' E 014°23'5 0.9
2017-Sep-16 10:38N 40°37' E 014°29'1 4.3
2017-Sep-16 10:25N 40°37' E 014°27'7 3.5
2017-Sep-16 08:26N 40°36' E 014°18'4 8.3
2017-Sep-16 08:00N 40°38' E 014°22'0 0.6
2017-Sep-16 07:30N 40°38' E 014°23'0 0.0
2017-Sep-15 15:33N 40°38' E 014°23'0 1.9
2017-Sep-15 15:30N 40°38' E 014°23'  
Track history (hours):
 
Tides and Currents Weather Stations Pressure Air Temp Water Temp Dewpoint Dewpoint Depression Visibility Wind Speed Wind Dir Waves Ship Positions

San Valentino

Last reported at 2017-Sep-25 15:27 UTC. Time now 2017-Sep-25 17:05 UTC.
Position N 40°38' E 014°23'.

Length 32 m; draft 2 m.

Type: Ship. MMSI: 247065100.

Date/timePositionNaut miles runAvg speedWind from/ knotsBaromVisibWave heightAir tempDewpointWater temp
2017-Sep-25 15:27N 40°38' E 014°23'5 1.0
2017-Sep-25 10:41N 40°37' E 014°29'2 9.4
2017-Sep-25 10:29N 40°36' E 014°27'6 3.3
2017-Sep-25 08:32N 40°36' E 014°18'0 9.2
2017-Sep-25 08:29N 40°36' E 014°19'3 7.1
2017-Sep-25 08:00N 40°38' E 014°23'0 0.0
2017-Sep-25 07:30N 40°38' E 014°23'0 0.0
2017-Sep-24 15:22N 40°38' E 014°23'2 6.5
2017-Sep-24 15:00N 40°37' E 014°19'3 5.5
2017-Sep-24 14:23N 40°35' E 014°22'6 1.5
2017-Sep-24 10:38N 40°37' E 014°29'1 9.5
2017-Sep-24 10:30N 40°37' E 014°27'7 3.6
2017-Sep-24 08:32N 40°36' E 014°18'0 9.2
2017-Sep-24 08:30N 40°36' E 014°18'4 7.2
2017-Sep-24 08:00N 40°38' E 014°23'0 0.0
2017-Sep-24 07:30N 40°38' E 014°23'  
2017-Sep-21 18:24N 40°38' E 014°23'2 5.8
2017-Sep-21 18:00N 40°38' E 014°20'1 0.3
2017-Sep-21 14:57N 40°37' E 014°20'4 8.8
2017-Sep-21 14:30N 40°39' E 014°24'1 2.2
2017-Sep-21 14:00N 40°38' E 014°24'0 0.0
2017-Sep-21 13:30N 40°38' E 014°24'1 2.4
2017-Sep-21 13:00N 40°38' E 014°23'  
2017-Sep-16 15:35N 40°38' E 014°23'0 2.1
2017-Sep-16 15:30N 40°38' E 014°23'5 0.9
2017-Sep-16 10:38N 40°37' E 014°29'1 4.3
2017-Sep-16 10:25N 40°37' E 014°27'7 3.5
2017-Sep-16 08:26N 40°36' E 014°18'4 8.3
2017-Sep-16 08:00N 40°38' E 014°22'0 0.6
2017-Sep-16 07:30N 40°38' E 014°23'0 0.0
2017-Sep-15 15:33N 40°38' E 014°23'0 1.9
2017-Sep-15 15:30N 40°38' E 014°23'  

Dump ship's entire track history